sensor_id;sensor_type;location;lat;lon;timestamp;P1;durP1;ratioP1;P2;durP2;ratioP2
21426;SDS011;10874;49.452;11.050;2024-02-15T00:00:44;4.77;;;4.27;;
21426;SDS011;10874;49.452;11.050;2024-02-15T00:03:11;5.33;;;4.70;;
21426;SDS011;10874;49.452;11.050;2024-02-15T00:05:40;4.73;;;4.17;;
21426;SDS011;10874;49.452;11.050;2024-02-15T00:08:09;5.03;;;4.60;;
21426;SDS011;10874;49.452;11.050;2024-02-15T00:10:36;6.10;;;4.57;;
21426;SDS011;10874;49.452;11.050;2024-02-15T00:13:02;4.73;;;4.20;;
21426;SDS011;10874;49.452;11.050;2024-02-15T00:15:29;4.97;;;4.53;;
21426;SDS011;10874;49.452;11.050;2024-02-15T00:17:56;5.90;;;4.97;;
21426;SDS011;10874;49.452;11.050;2024-02-15T00:20:23;4.83;;;4.07;;
21426;SDS011;10874;49.452;11.050;2024-02-15T00:22:50;4.87;;;4.30;;
21426;SDS011;10874;49.452;11.050;2024-02-15T00:25:17;4.40;;;4.00;;
21426;SDS011;10874;49.452;11.050;2024-02-15T00:27:46;6.10;;;4.70;;
21426;SDS011;10874;49.452;11.050;2024-02-15T00:30:13;5.10;;;3.90;;
21426;SDS011;10874;49.452;11.050;2024-02-15T00:32:40;5.27;;;4.77;;
21426;SDS011;10874;49.452;11.050;2024-02-15T00:35:07;6.20;;;4.37;;
21426;SDS011;10874;49.452;11.050;2024-02-15T00:37:37;5.47;;;4.00;;
21426;SDS011;10874;49.452;11.050;2024-02-15T00:40:04;4.60;;;3.90;;
21426;SDS011;10874;49.452;11.050;2024-02-15T00:42:31;4.70;;;4.30;;
21426;SDS011;10874;49.452;11.050;2024-02-15T00:44:58;4.97;;;4.47;;
21426;SDS011;10874;49.452;11.050;2024-02-15T00:47:25;5.07;;;4.17;;
21426;SDS011;10874;49.452;11.050;2024-02-15T00:49:51;4.70;;;4.30;;
21426;SDS011;10874;49.452;11.050;2024-02-15T00:52:18;4.40;;;4.00;;
21426;SDS011;10874;49.452;11.050;2024-02-15T00:54:46;5.73;;;4.10;;
21426;SDS011;10874;49.452;11.050;2024-02-15T00:57:12;5.73;;;3.90;;
21426;SDS011;10874;49.452;11.050;2024-02-15T00:59:39;4.63;;;4.20;;
21426;SDS011;10874;49.452;11.050;2024-02-15T01:02:06;5.30;;;4.13;;
21426;SDS011;10874;49.452;11.050;2024-02-15T01:04:33;4.67;;;4.20;;
21426;SDS011;10874;49.452;11.050;2024-02-15T01:07:00;4.20;;;3.80;;
21426;SDS011;10874;49.452;11.050;2024-02-15T01:09:27;4.07;;;3.67;;
21426;SDS011;10874;49.452;11.050;2024-02-15T01:11:54;4.00;;;3.60;;
21426;SDS011;10874;49.452;11.050;2024-02-15T01:14:21;5.33;;;4.13;;
21426;SDS011;10874;49.452;11.050;2024-02-15T01:16:48;4.57;;;3.90;;
21426;SDS011;10874;49.452;11.050;2024-02-15T01:19:15;4.40;;;4.00;;
21426;SDS011;10874;49.452;11.050;2024-02-15T01:21:42;4.53;;;3.80;;
21426;SDS011;10874;49.452;11.050;2024-02-15T01:24:10;5.03;;;3.70;;
21426;SDS011;10874;49.452;11.050;2024-02-15T01:26:37;3.77;;;3.47;;
21426;SDS011;10874;49.452;11.050;2024-02-15T01:29:04;4.90;;;3.57;;
21426;SDS011;10874;49.452;11.050;2024-02-15T01:31:31;4.63;;;4.00;;
21426;SDS011;10874;49.452;11.050;2024-02-15T01:33:57;3.87;;;3.47;;
21426;SDS011;10874;49.452;11.050;2024-02-15T01:36:24;4.63;;;4.00;;
21426;SDS011;10874;49.452;11.050;2024-02-15T01:38:51;6.20;;;4.13;;
21426;SDS011;10874;49.452;11.050;2024-02-15T01:41:18;4.83;;;3.87;;
21426;SDS011;10874;49.452;11.050;2024-02-15T01:43:45;4.50;;;4.10;;
21426;SDS011;10874;49.452;11.050;2024-02-15T01:46:12;4.57;;;3.77;;
21426;SDS011;10874;49.452;11.050;2024-02-15T01:48:40;5.13;;;3.77;;
21426;SDS011;10874;49.452;11.050;2024-02-15T01:51:08;3.67;;;3.37;;
21426;SDS011;10874;49.452;11.050;2024-02-15T01:53:37;4.43;;;3.63;;
21426;SDS011;10874;49.452;11.050;2024-02-15T01:56:04;5.53;;;3.97;;
21426;SDS011;10874;49.452;11.050;2024-02-15T01:58:31;7.23;;;4.30;;
21426;SDS011;10874;49.452;11.050;2024-02-15T02:00:59;4.40;;;4.00;;
21426;SDS011;10874;49.452;11.050;2024-02-15T02:03:27;5.03;;;4.13;;
21426;SDS011;10874;49.452;11.050;2024-02-15T02:05:54;4.73;;;3.63;;
21426;SDS011;10874;49.452;11.050;2024-02-15T02:08:21;5.33;;;4.57;;
21426;SDS011;10874;49.452;11.050;2024-02-15T02:10:49;5.33;;;4.40;;
21426;SDS011;10874;49.452;11.050;2024-02-15T02:13:16;6.33;;;5.03;;
21426;SDS011;10874;49.452;11.050;2024-02-15T02:15:43;4.87;;;4.37;;
21426;SDS011;10874;49.452;11.050;2024-02-15T02:18:10;5.27;;;4.70;;
21426;SDS011;10874;49.452;11.050;2024-02-15T02:20:37;6.60;;;4.77;;
21426;SDS011;10874;49.452;11.050;2024-02-15T02:25:34;6.33;;;5.37;;
21426;SDS011;10874;49.452;11.050;2024-02-15T02:28:01;6.03;;;5.23;;
21426;SDS011;10874;49.452;11.050;2024-02-15T02:30:28;6.03;;;4.90;;
21426;SDS011;10874;49.452;11.050;2024-02-15T02:32:56;6.40;;;5.23;;
21426;SDS011;10874;49.452;11.050;2024-02-15T02:35:26;5.93;;;4.83;;
21426;SDS011;10874;49.452;11.050;2024-02-15T02:37:54;5.67;;;4.97;;
21426;SDS011;10874;49.452;11.050;2024-02-15T02:40:21;6.50;;;4.87;;
21426;SDS011;10874;49.452;11.050;2024-02-15T02:42:49;5.63;;;4.53;;
21426;SDS011;10874;49.452;11.050;2024-02-15T02:45:16;6.53;;;5.27;;
21426;SDS011;10874;49.452;11.050;2024-02-15T02:47:46;5.23;;;4.23;;
21426;SDS011;10874;49.452;11.050;2024-02-15T02:50:15;7.10;;;4.43;;
21426;SDS011;10874;49.452;11.050;2024-02-15T02:52:42;5.33;;;4.70;;
21426;SDS011;10874;49.452;11.050;2024-02-15T02:55:08;7.13;;;4.83;;
21426;SDS011;10874;49.452;11.050;2024-02-15T02:57:35;5.20;;;4.50;;
21426;SDS011;10874;49.452;11.050;2024-02-15T03:00:05;5.23;;;4.63;;
21426;SDS011;10874;49.452;11.050;2024-02-15T03:02:39;6.07;;;4.50;;
21426;SDS011;10874;49.452;11.050;2024-02-15T03:05:06;6.33;;;5.00;;
21426;SDS011;10874;49.452;11.050;2024-02-15T03:07:35;5.03;;;4.27;;
21426;SDS011;10874;49.452;11.050;2024-02-15T03:10:02;5.27;;;4.47;;
21426;SDS011;10874;49.452;11.050;2024-02-15T03:12:38;7.97;;;4.60;;
21426;SDS011;10874;49.452;11.050;2024-02-15T03:15:05;5.70;;;4.60;;
21426;SDS011;10874;49.452;11.050;2024-02-15T03:17:38;7.93;;;5.10;;
21426;SDS011;10874;49.452;11.050;2024-02-15T03:20:05;5.37;;;4.57;;
21426;SDS011;10874;49.452;11.050;2024-02-15T03:22:38;7.30;;;5.17;;
21426;SDS011;10874;49.452;11.050;2024-02-15T03:25:05;4.83;;;4.23;;
21426;SDS011;10874;49.452;11.050;2024-02-15T03:27:35;6.30;;;5.23;;
21426;SDS011;10874;49.452;11.050;2024-02-15T03:30:04;6.17;;;4.33;;
21426;SDS011;10874;49.452;11.050;2024-02-15T03:32:31;4.57;;;4.17;;
21426;SDS011;10874;49.452;11.050;2024-02-15T03:34:59;6.60;;;4.77;;
21426;SDS011;10874;49.452;11.050;2024-02-15T03:37:28;5.10;;;4.00;;
21426;SDS011;10874;49.452;11.050;2024-02-15T03:39:55;4.70;;;4.30;;
21426;SDS011;10874;49.452;11.050;2024-02-15T03:42:22;4.90;;;4.40;;
21426;SDS011;10874;49.452;11.050;2024-02-15T03:44:48;6.13;;;4.13;;
21426;SDS011;10874;49.452;11.050;2024-02-15T03:47:15;5.50;;;3.97;;
21426;SDS011;10874;49.452;11.050;2024-02-15T03:49:42;4.43;;;4.03;;
21426;SDS011;10874;49.452;11.050;2024-02-15T03:52:09;4.70;;;4.20;;
21426;SDS011;10874;49.452;11.050;2024-02-15T03:54:37;4.10;;;3.70;;
21426;SDS011;10874;49.452;11.050;2024-02-15T03:57:03;4.30;;;3.90;;
21426;SDS011;10874;49.452;11.050;2024-02-15T03:59:30;6.13;;;4.33;;
21426;SDS011;10874;49.452;11.050;2024-02-15T04:01:58;4.47;;;4.07;;
21426;SDS011;10874;49.452;11.050;2024-02-15T04:04:25;4.77;;;4.03;;
21426;SDS011;10874;49.452;11.050;2024-02-15T04:06:52;4.57;;;4.17;;
21426;SDS011;10874;49.452;11.050;2024-02-15T04:09:19;4.77;;;4.00;;
21426;SDS011;10874;49.452;11.050;2024-02-15T04:11:47;4.67;;;4.27;;
21426;SDS011;10874;49.452;11.050;2024-02-15T04:14:16;4.07;;;3.67;;
21426;SDS011;10874;49.452;11.050;2024-02-15T04:16:44;4.37;;;4.00;;
21426;SDS011;10874;49.452;11.050;2024-02-15T04:19:11;3.77;;;3.47;;
21426;SDS011;10874;49.452;11.050;2024-02-15T04:21:38;5.37;;;3.90;;
21426;SDS011;10874;49.452;11.050;2024-02-15T04:24:06;4.50;;;4.10;;
21426;SDS011;10874;49.452;11.050;2024-02-15T04:26:33;5.07;;;4.03;;
21426;SDS011;10874;49.452;11.050;2024-02-15T04:29:00;5.67;;;4.30;;
21426;SDS011;10874;49.452;11.050;2024-02-15T04:31:27;4.43;;;4.03;;
21426;SDS011;10874;49.452;11.050;2024-02-15T04:33:54;4.07;;;3.63;;
21426;SDS011;10874;49.452;11.050;2024-02-15T04:36:21;4.77;;;4.07;;
21426;SDS011;10874;49.452;11.050;2024-02-15T04:38:52;5.03;;;4.00;;
21426;SDS011;10874;49.452;11.050;2024-02-15T04:41:18;4.73;;;4.23;;
21426;SDS011;10874;49.452;11.050;2024-02-15T04:43:46;4.70;;;3.93;;
21426;SDS011;10874;49.452;11.050;2024-02-15T04:46:13;4.30;;;3.90;;
21426;SDS011;10874;49.452;11.050;2024-02-15T04:48:44;5.30;;;4.20;;
21426;SDS011;10874;49.452;11.050;2024-02-15T04:51:10;5.63;;;4.10;;
21426;SDS011;10874;49.452;11.050;2024-02-15T04:53:37;8.00;;;4.70;;
21426;SDS011;10874;49.452;11.050;2024-02-15T04:56:06;4.47;;;4.07;;
21426;SDS011;10874;49.452;11.050;2024-02-15T04:58:40;4.60;;;4.20;;
21426;SDS011;10874;49.452;11.050;2024-02-15T05:01:14;4.67;;;4.13;;
21426;SDS011;10874;49.452;11.050;2024-02-15T05:03:42;4.40;;;4.00;;
21426;SDS011;10874;49.452;11.050;2024-02-15T05:06:09;5.47;;;4.23;;
21426;SDS011;10874;49.452;11.050;2024-02-15T05:08:36;6.10;;;4.20;;
21426;SDS011;10874;49.452;11.050;2024-02-15T05:11:11;5.27;;;4.33;;
21426;SDS011;10874;49.452;11.050;2024-02-15T05:13:44;7.40;;;4.30;;
21426;SDS011;10874;49.452;11.050;2024-02-15T05:16:16;5.70;;;4.40;;
21426;SDS011;10874;49.452;11.050;2024-02-15T05:18:43;4.63;;;4.23;;
21426;SDS011;10874;49.452;11.050;2024-02-15T05:21:10;6.27;;;4.43;;
21426;SDS011;10874;49.452;11.050;2024-02-15T05:23:37;5.13;;;4.63;;
21426;SDS011;10874;49.452;11.050;2024-02-15T05:26:06;5.30;;;4.63;;
21426;SDS011;10874;49.452;11.050;2024-02-15T05:28:33;7.63;;;5.57;;
21426;SDS011;10874;49.452;11.050;2024-02-15T05:31:09;6.30;;;5.03;;
21426;SDS011;10874;49.452;11.050;2024-02-15T05:33:37;5.73;;;4.90;;
21426;SDS011;10874;49.452;11.050;2024-02-15T05:36:07;6.10;;;5.00;;
21426;SDS011;10874;49.452;11.050;2024-02-15T05:38:35;5.67;;;5.07;;
21426;SDS011;10874;49.452;11.050;2024-02-15T05:41:02;5.37;;;4.83;;
21426;SDS011;10874;49.452;11.050;2024-02-15T05:43:29;5.37;;;4.47;;
21426;SDS011;10874;49.452;11.050;2024-02-15T05:45:56;5.07;;;4.57;;
21426;SDS011;10874;49.452;11.050;2024-02-15T05:48:26;5.80;;;4.17;;
21426;SDS011;10874;49.452;11.050;2024-02-15T05:50:54;5.83;;;4.47;;
21426;SDS011;10874;49.452;11.050;2024-02-15T05:53:21;5.43;;;4.30;;
21426;SDS011;10874;49.452;11.050;2024-02-15T05:55:48;6.63;;;4.20;;
21426;SDS011;10874;49.452;11.050;2024-02-15T05:58:16;4.33;;;3.93;;
21426;SDS011;10874;49.452;11.050;2024-02-15T06:00:43;4.80;;;4.40;;
21426;SDS011;10874;49.452;11.050;2024-02-15T06:03:14;5.17;;;4.10;;
21426;SDS011;10874;49.452;11.050;2024-02-15T06:05:40;4.77;;;4.03;;
21426;SDS011;10874;49.452;11.050;2024-02-15T06:08:09;5.10;;;4.60;;
21426;SDS011;10874;49.452;11.050;2024-02-15T06:10:36;5.77;;;4.20;;
21426;SDS011;10874;49.452;11.050;2024-02-15T06:13:03;4.93;;;4.43;;
21426;SDS011;10874;49.452;11.050;2024-02-15T06:15:29;6.50;;;5.03;;
21426;SDS011;10874;49.452;11.050;2024-02-15T06:17:56;5.10;;;4.57;;
21426;SDS011;10874;49.452;11.050;2024-02-15T06:20:24;7.23;;;4.80;;
21426;SDS011;10874;49.452;11.050;2024-02-15T06:22:51;5.77;;;4.83;;
21426;SDS011;10874;49.452;11.050;2024-02-15T06:25:18;6.20;;;4.70;;
21426;SDS011;10874;49.452;11.050;2024-02-15T06:27:48;5.63;;;4.87;;
21426;SDS011;10874;49.452;11.050;2024-02-15T06:30:17;5.03;;;4.53;;
21426;SDS011;10874;49.452;11.050;2024-02-15T06:33:03;5.47;;;4.63;;
21426;SDS011;10874;49.452;11.050;2024-02-15T06:36:08;6.97;;;5.80;;
21426;SDS011;10874;49.452;11.050;2024-02-15T06:38:53;9.20;;;6.70;;
21426;SDS011;10874;49.452;11.050;2024-02-15T06:41:39;7.07;;;5.90;;
21426;SDS011;10874;49.452;11.050;2024-02-15T06:44:07;5.87;;;5.27;;
21426;SDS011;10874;49.452;11.050;2024-02-15T06:46:34;5.80;;;5.10;;
21426;SDS011;10874;49.452;11.050;2024-02-15T06:49:01;5.60;;;4.70;;
21426;SDS011;10874;49.452;11.050;2024-02-15T06:51:28;5.53;;;4.77;;
21426;SDS011;10874;49.452;11.050;2024-02-15T06:53:54;4.40;;;3.80;;
21426;SDS011;10874;49.452;11.050;2024-02-15T06:56:23;7.57;;;4.43;;
21426;SDS011;10874;49.452;11.050;2024-02-15T06:58:51;6.77;;;4.03;;
21426;SDS011;10874;49.452;11.050;2024-02-15T07:01:17;8.47;;;4.87;;
21426;SDS011;10874;49.452;11.050;2024-02-15T07:03:44;7.10;;;4.33;;
21426;SDS011;10874;49.452;11.050;2024-02-15T07:06:12;5.80;;;4.10;;
21426;SDS011;10874;49.452;11.050;2024-02-15T07:08:40;6.00;;;4.10;;
21426;SDS011;10874;49.452;11.050;2024-02-15T07:11:07;6.47;;;4.67;;
21426;SDS011;10874;49.452;11.050;2024-02-15T07:13:36;6.97;;;4.50;;
21426;SDS011;10874;49.452;11.050;2024-02-15T07:16:08;5.27;;;4.30;;
21426;SDS011;10874;49.452;11.050;2024-02-15T07:18:35;7.47;;;4.20;;
21426;SDS011;10874;49.452;11.050;2024-02-15T07:21:03;5.53;;;4.10;;
21426;SDS011;10874;49.452;11.050;2024-02-15T07:23:35;5.87;;;4.27;;
21426;SDS011;10874;49.452;11.050;2024-02-15T07:26:04;5.83;;;3.90;;
21426;SDS011;10874;49.452;11.050;2024-02-15T07:28:31;5.03;;;4.30;;
21426;SDS011;10874;49.452;11.050;2024-02-15T07:30:57;6.37;;;4.17;;
21426;SDS011;10874;49.452;11.050;2024-02-15T07:33:24;4.13;;;3.73;;
21426;SDS011;10874;49.452;11.050;2024-02-15T07:35:51;4.60;;;4.03;;
21426;SDS011;10874;49.452;11.050;2024-02-15T07:38:19;5.90;;;3.87;;
21426;SDS011;10874;49.452;11.050;2024-02-15T07:40:46;4.77;;;3.97;;
21426;SDS011;10874;49.452;11.050;2024-02-15T07:43:12;5.73;;;4.20;;
21426;SDS011;10874;49.452;11.050;2024-02-15T07:45:40;7.57;;;4.57;;
21426;SDS011;10874;49.452;11.050;2024-02-15T07:48:07;5.80;;;3.97;;
21426;SDS011;10874;49.452;11.050;2024-02-15T07:50:34;6.03;;;4.33;;
21426;SDS011;10874;49.452;11.050;2024-02-15T07:53:04;4.90;;;4.03;;
21426;SDS011;10874;49.452;11.050;2024-02-15T07:55:33;7.17;;;4.37;;
21426;SDS011;10874;49.452;11.050;2024-02-15T07:58:00;4.80;;;3.97;;
21426;SDS011;10874;49.452;11.050;2024-02-15T08:00:28;5.27;;;4.20;;
21426;SDS011;10874;49.452;11.050;2024-02-15T08:02:56;5.47;;;4.30;;
21426;SDS011;10874;49.452;11.050;2024-02-15T08:05:26;6.53;;;3.63;;
21426;SDS011;10874;49.452;11.050;2024-02-15T08:07:53;4.20;;;3.77;;
21426;SDS011;10874;49.452;11.050;2024-02-15T08:10:23;5.30;;;3.83;;
21426;SDS011;10874;49.452;11.050;2024-02-15T08:12:50;4.77;;;4.00;;
21426;SDS011;10874;49.452;11.050;2024-02-15T08:15:19;4.80;;;3.87;;
21426;SDS011;10874;49.452;11.050;2024-02-15T08:17:46;4.57;;;3.37;;
21426;SDS011;10874;49.452;11.050;2024-02-15T08:20:14;5.90;;;4.50;;
21426;SDS011;10874;49.452;11.050;2024-02-15T08:22:44;6.03;;;3.93;;
21426;SDS011;10874;49.452;11.050;2024-02-15T08:25:11;4.60;;;3.60;;
21426;SDS011;10874;49.452;11.050;2024-02-15T08:27:39;7.27;;;3.70;;
21426;SDS011;10874;49.452;11.050;2024-02-15T08:30:12;7.43;;;3.90;;
21426;SDS011;10874;49.452;11.050;2024-02-15T08:32:39;5.43;;;3.83;;
21426;SDS011;10874;49.452;11.050;2024-02-15T08:35:09;6.33;;;3.67;;
21426;SDS011;10874;49.452;11.050;2024-02-15T08:37:36;5.73;;;3.80;;
21426;SDS011;10874;49.452;11.050;2024-02-15T08:40:05;4.67;;;3.57;;
21426;SDS011;10874;49.452;11.050;2024-02-15T08:42:40;8.33;;;4.07;;
21426;SDS011;10874;49.452;11.050;2024-02-15T08:45:07;8.83;;;4.13;;
21426;SDS011;10874;49.452;11.050;2024-02-15T08:47:37;8.60;;;4.10;;
21426;SDS011;10874;49.452;11.050;2024-02-15T08:50:06;4.70;;;4.00;;
21426;SDS011;10874;49.452;11.050;2024-02-15T08:52:33;6.60;;;4.37;;
21426;SDS011;10874;49.452;11.050;2024-02-15T08:55:00;6.23;;;5.63;;
21426;SDS011;10874;49.452;11.050;2024-02-15T08:57:27;7.00;;;4.37;;
21426;SDS011;10874;49.452;11.050;2024-02-15T08:59:54;4.70;;;4.03;;
21426;SDS011;10874;49.452;11.050;2024-02-15T09:02:21;6.80;;;5.00;;
21426;SDS011;10874;49.452;11.050;2024-02-15T09:04:48;6.73;;;5.27;;
21426;SDS011;10874;49.452;11.050;2024-02-15T09:07:15;6.63;;;5.30;;
21426;SDS011;10874;49.452;11.050;2024-02-15T09:09:42;6.53;;;4.40;;
21426;SDS011;10874;49.452;11.050;2024-02-15T09:12:08;5.90;;;4.40;;
21426;SDS011;10874;49.452;11.050;2024-02-15T09:14:35;5.87;;;4.13;;
21426;SDS011;10874;49.452;11.050;2024-02-15T09:17:05;4.97;;;3.60;;
21426;SDS011;10874;49.452;11.050;2024-02-15T09:19:34;5.50;;;3.47;;
21426;SDS011;10874;49.452;11.050;2024-02-15T09:22:01;5.10;;;3.67;;
21426;SDS011;10874;49.452;11.050;2024-02-15T09:24:30;6.70;;;4.37;;
21426;SDS011;10874;49.452;11.050;2024-02-15T09:26:59;7.43;;;4.20;;
21426;SDS011;10874;49.452;11.050;2024-02-15T09:29:28;6.47;;;4.00;;
21426;SDS011;10874;49.452;11.050;2024-02-15T09:31:56;5.13;;;3.53;;
21426;SDS011;10874;49.452;11.050;2024-02-15T09:34:28;5.03;;;4.20;;
21426;SDS011;10874;49.452;11.050;2024-02-15T09:36:56;5.13;;;3.90;;
21426;SDS011;10874;49.452;11.050;2024-02-15T09:39:23;5.00;;;3.60;;
21426;SDS011;10874;49.452;11.050;2024-02-15T09:41:50;5.03;;;3.07;;
21426;SDS011;10874;49.452;11.050;2024-02-15T09:44:23;6.27;;;3.63;;
21426;SDS011;10874;49.452;11.050;2024-02-15T09:47:01;4.93;;;3.50;;
21426;SDS011;10874;49.452;11.050;2024-02-15T09:49:33;7.03;;;4.00;;
21426;SDS011;10874;49.452;11.050;2024-02-15T09:52:08;5.33;;;4.10;;
21426;SDS011;10874;49.452;11.050;2024-02-15T09:54:39;4.93;;;4.20;;
21426;SDS011;10874;49.452;11.050;2024-02-15T09:57:06;6.63;;;4.07;;
21426;SDS011;10874;49.452;11.050;2024-02-15T09:59:33;5.10;;;3.43;;
21426;SDS011;10874;49.452;11.050;2024-02-15T10:02:02;4.40;;;3.70;;
21426;SDS011;10874;49.452;11.050;2024-02-15T10:04:29;5.57;;;3.80;;
21426;SDS011;10874;49.452;11.050;2024-02-15T10:06:56;8.17;;;3.70;;
21426;SDS011;10874;49.452;11.050;2024-02-15T10:11:53;3.90;;;3.50;;
21426;SDS011;10874;49.452;11.050;2024-02-15T10:14:22;3.43;;;3.00;;
21426;SDS011;10874;49.452;11.050;2024-02-15T10:16:49;3.73;;;3.33;;
21426;SDS011;10874;49.452;11.050;2024-02-15T10:19:15;8.33;;;3.57;;
21426;SDS011;10874;49.452;11.050;2024-02-15T10:21:43;4.77;;;3.40;;
21426;SDS011;10874;49.452;11.050;2024-02-15T10:24:13;5.20;;;3.20;;
21426;SDS011;10874;49.452;11.050;2024-02-15T10:26:40;4.03;;;3.20;;
21426;SDS011;10874;49.452;11.050;2024-02-15T10:29:08;4.63;;;3.80;;
21426;SDS011;10874;49.452;11.050;2024-02-15T10:31:37;4.27;;;3.70;;
21426;SDS011;10874;49.452;11.050;2024-02-15T10:34:04;4.37;;;2.97;;
21426;SDS011;10874;49.452;11.050;2024-02-15T10:36:32;4.43;;;3.00;;
21426;SDS011;10874;49.452;11.050;2024-02-15T10:39:10;4.70;;;2.90;;
21426;SDS011;10874;49.452;11.050;2024-02-15T10:41:38;3.70;;;3.10;;
21426;SDS011;10874;49.452;11.050;2024-02-15T10:44:06;5.37;;;2.87;;
21426;SDS011;10874;49.452;11.050;2024-02-15T10:46:33;3.77;;;3.10;;
21426;SDS011;10874;49.452;11.050;2024-02-15T10:49:00;3.20;;;2.90;;
21426;SDS011;10874;49.452;11.050;2024-02-15T10:51:27;4.93;;;2.90;;
21426;SDS011;10874;49.452;11.050;2024-02-15T10:53:57;6.10;;;3.00;;
21426;SDS011;10874;49.452;11.050;2024-02-15T10:56:26;4.67;;;3.07;;
21426;SDS011;10874;49.452;11.050;2024-02-15T10:58:56;6.23;;;2.73;;
21426;SDS011;10874;49.452;11.050;2024-02-15T11:01:26;5.83;;;2.93;;
21426;SDS011;10874;49.452;11.050;2024-02-15T11:03:56;6.80;;;3.00;;
21426;SDS011;10874;49.452;11.050;2024-02-15T11:06:26;4.07;;;2.60;;
21426;SDS011;10874;49.452;11.050;2024-02-15T11:08:54;3.03;;;2.40;;
21426;SDS011;10874;49.452;11.050;2024-02-15T11:11:21;4.00;;;2.87;;
21426;SDS011;10874;49.452;11.050;2024-02-15T11:13:48;4.03;;;2.90;;
21426;SDS011;10874;49.452;11.050;2024-02-15T11:19:00;4.77;;;2.97;;
21426;SDS011;10874;49.452;11.050;2024-02-15T11:24:26;6.13;;;2.50;;
21426;SDS011;10874;49.452;11.050;2024-02-15T11:27:00;2.57;;;2.30;;
21426;SDS011;10874;49.452;11.050;2024-02-15T11:29:50;3.77;;;2.50;;
21426;SDS011;10874;49.452;11.050;2024-02-15T11:32:34;4.00;;;2.10;;
21426;SDS011;10874;49.452;11.050;2024-02-15T11:35:05;2.30;;;1.93;;
21426;SDS011;10874;49.452;11.050;2024-02-15T11:37:56;6.27;;;2.47;;
21426;SDS011;10874;49.452;11.050;2024-02-15T11:43:08;3.60;;;2.10;;
21426;SDS011;10874;49.452;11.050;2024-02-15T11:45:35;5.43;;;2.10;;
21426;SDS011;10874;49.452;11.050;2024-02-15T11:48:08;3.77;;;2.20;;
21426;SDS011;10874;49.452;11.050;2024-02-15T11:50:40;4.60;;;2.33;;
21426;SDS011;10874;49.452;11.050;2024-02-15T11:53:07;4.40;;;2.70;;
21426;SDS011;10874;49.452;11.050;2024-02-15T11:55:39;3.00;;;2.63;;
21426;SDS011;10874;49.452;11.050;2024-02-15T11:58:09;4.97;;;2.43;;
21426;SDS011;10874;49.452;11.050;2024-02-15T12:00:37;5.30;;;2.20;;
21426;SDS011;10874;49.452;11.050;2024-02-15T12:03:23;3.50;;;2.40;;
21426;SDS011;10874;49.452;11.050;2024-02-15T12:06:27;4.33;;;2.50;;
21426;SDS011;10874;49.452;11.050;2024-02-15T12:09:13;5.20;;;2.80;;
21426;SDS011;10874;49.452;11.050;2024-02-15T12:12:02;2.93;;;2.07;;
21426;SDS011;10874;49.452;11.050;2024-02-15T12:14:48;2.93;;;2.33;;
21426;SDS011;10874;49.452;11.050;2024-02-15T12:17:33;4.13;;;1.90;;
21426;SDS011;10874;49.452;11.050;2024-02-15T12:20:19;5.50;;;2.00;;
21426;SDS011;10874;49.452;11.050;2024-02-15T12:22:52;3.80;;;1.90;;
21426;SDS011;10874;49.452;11.050;2024-02-15T12:25:19;2.13;;;1.53;;
21426;SDS011;10874;49.452;11.050;2024-02-15T12:27:59;2.00;;;1.20;;
21426;SDS011;10874;49.452;11.050;2024-02-15T12:30:26;3.80;;;1.60;;
21426;SDS011;10874;49.452;11.050;2024-02-15T12:33:08;1.73;;;1.37;;
21426;SDS011;10874;49.452;11.050;2024-02-15T12:35:35;1.87;;;1.30;;
21426;SDS011;10874;49.452;11.050;2024-02-15T12:38:03;4.80;;;1.20;;
21426;SDS011;10874;49.452;11.050;2024-02-15T12:40:35;2.93;;;1.40;;
21426;SDS011;10874;49.452;11.050;2024-02-15T12:43:05;2.50;;;1.60;;
21426;SDS011;10874;49.452;11.050;2024-02-15T12:45:32;2.73;;;1.67;;
21426;SDS011;10874;49.452;11.050;2024-02-15T12:48:03;4.00;;;2.20;;
21426;SDS011;10874;49.452;11.050;2024-02-15T12:50:30;3.47;;;2.53;;
21426;SDS011;10874;49.452;11.050;2024-02-15T12:52:57;1.70;;;1.60;;
21426;SDS011;10874;49.452;11.050;2024-02-15T12:55:31;3.83;;;1.70;;
21426;SDS011;10874;49.452;11.050;2024-02-15T12:58:01;3.43;;;1.53;;
21426;SDS011;10874;49.452;11.050;2024-02-15T13:00:31;2.37;;;1.20;;
21426;SDS011;10874;49.452;11.050;2024-02-15T13:03:01;3.70;;;1.73;;
21426;SDS011;10874;49.452;11.050;2024-02-15T13:05:30;1.30;;;1.20;;
21426;SDS011;10874;49.452;11.050;2024-02-15T13:07:57;3.03;;;1.60;;
21426;SDS011;10874;49.452;11.050;2024-02-15T13:10:24;3.50;;;1.47;;
21426;SDS011;10874;49.452;11.050;2024-02-15T13:12:54;1.83;;;1.40;;
21426;SDS011;10874;49.452;11.050;2024-02-15T13:15:22;1.63;;;1.40;;
21426;SDS011;10874;49.452;11.050;2024-02-15T13:17:54;2.83;;;1.30;;
21426;SDS011;10874;49.452;11.050;2024-02-15T13:20:22;2.87;;;1.70;;
21426;SDS011;10874;49.452;11.050;2024-02-15T13:23:04;3.33;;;1.60;;
21426;SDS011;10874;49.452;11.050;2024-02-15T13:25:57;1.80;;;1.47;;
21426;SDS011;10874;49.452;11.050;2024-02-15T13:28:26;3.73;;;1.60;;
21426;SDS011;10874;49.452;11.050;2024-02-15T13:30:52;4.67;;;1.60;;
21426;SDS011;10874;49.452;11.050;2024-02-15T13:33:22;1.70;;;1.50;;
21426;SDS011;10874;49.452;11.050;2024-02-15T13:35:50;2.27;;;1.47;;
21426;SDS011;10874;49.452;11.050;2024-02-15T13:38:17;2.73;;;1.43;;
21426;SDS011;10874;49.452;11.050;2024-02-15T13:40:50;2.63;;;1.63;;
21426;SDS011;10874;49.452;11.050;2024-02-15T13:43:17;2.43;;;1.13;;
21426;SDS011;10874;49.452;11.050;2024-02-15T13:45:44;5.00;;;1.33;;
21426;SDS011;10874;49.452;11.050;2024-02-15T13:48:11;2.23;;;1.40;;
21426;SDS011;10874;49.452;11.050;2024-02-15T13:50:43;3.03;;;1.43;;
21426;SDS011;10874;49.452;11.050;2024-02-15T13:53:10;3.93;;;1.70;;
21426;SDS011;10874;49.452;11.050;2024-02-15T13:55:40;4.10;;;1.73;;
21426;SDS011;10874;49.452;11.050;2024-02-15T13:58:06;3.23;;;1.50;;
21426;SDS011;10874;49.452;11.050;2024-02-15T14:00:35;2.23;;;1.27;;
21426;SDS011;10874;49.452;11.050;2024-02-15T14:03:03;3.93;;;1.60;;
21426;SDS011;10874;49.452;11.050;2024-02-15T14:05:33;2.43;;;1.30;;
21426;SDS011;10874;49.452;11.050;2024-02-15T14:08:00;2.30;;;1.20;;
21426;SDS011;10874;49.452;11.050;2024-02-15T14:10:28;1.40;;;1.30;;
21426;SDS011;10874;49.452;11.050;2024-02-15T14:12:56;3.53;;;1.60;;
21426;SDS011;10874;49.452;11.050;2024-02-15T14:15:27;2.53;;;1.30;;
21426;SDS011;10874;49.452;11.050;2024-02-15T14:17:54;3.13;;;1.40;;
21426;SDS011;10874;49.452;11.050;2024-02-15T14:20:22;2.93;;;1.73;;
21426;SDS011;10874;49.452;11.050;2024-02-15T14:22:50;4.57;;;1.80;;
21426;SDS011;10874;49.452;11.050;2024-02-15T14:25:23;4.33;;;1.60;;
21426;SDS011;10874;49.452;11.050;2024-02-15T14:27:53;3.03;;;1.40;;
21426;SDS011;10874;49.452;11.050;2024-02-15T14:30:20;1.57;;;1.03;;
21426;SDS011;10874;49.452;11.050;2024-02-15T14:33:05;1.40;;;1.27;;
21426;SDS011;10874;49.452;11.050;2024-02-15T14:35:38;1.83;;;1.60;;
21426;SDS011;10874;49.452;11.050;2024-02-15T14:38:09;2.40;;;1.40;;
21426;SDS011;10874;49.452;11.050;2024-02-15T14:40:37;2.50;;;1.33;;
21426;SDS011;10874;49.452;11.050;2024-02-15T14:43:08;2.63;;;1.50;;
21426;SDS011;10874;49.452;11.050;2024-02-15T14:45:35;3.90;;;2.20;;
21426;SDS011;10874;49.452;11.050;2024-02-15T14:48:05;2.23;;;1.70;;
21426;SDS011;10874;49.452;11.050;2024-02-15T14:50:32;3.70;;;2.00;;
21426;SDS011;10874;49.452;11.050;2024-02-15T14:52:59;3.20;;;1.80;;
21426;SDS011;10874;49.452;11.050;2024-02-15T14:55:25;4.30;;;2.07;;
21426;SDS011;10874;49.452;11.050;2024-02-15T14:57:52;3.20;;;1.77;;